Time;durP1;ratioP1;P1;durP2;ratioP2;P2;SDS_P1;SDS_P2;PMS_P1;PMS_P2;Temp;Humidity;BMP_temperature;BMP_pressure;BME280_temperature;BME280_humidity;BME280_pressure;Samples;Min_cycle;Max_cycle;Signal;HPM_P1;HPM_P2
2023/08/04 00:02:11;;;;;;;8.18;7.57;;;;;;;-144.30;57.21;83534.22;5091593;28;20199;-55
2023/08/04 00:05:09;;;;;;;9.30;8.45;;;;;;;-144.30;57.23;83482.56;5091872;28;20490;-49
2023/08/04 00:07:59;;;;;;;8.75;8.18;;;;;;;-144.30;57.26;83442.84;5092488;28;20195;-49
2023/08/04 00:10:47;;;;;;;8.75;8.05;;;;;;;-144.30;57.30;83512.38;5091210;28;20195;-49
2023/08/04 00:13:40;;;;;;;9.27;8.60;;;;;;;-144.30;57.38;83516.34;5091930;28;20238;-54
2023/08/04 00:16:34;;;;;;;8.73;8.13;;;;;;;-144.30;57.55;83528.28;5092019;28;20195;-48
2023/08/04 00:19:24;;;;;;;8.88;8.18;;;;;;;-144.30;57.74;83566.03;5090733;28;20679;-54
2023/08/04 00:22:25;;;;;;;11.20;8.23;;;;;;;-144.30;57.82;83589.88;5088569;28;20199;-55
2023/08/04 00:25:10;;;;;;;9.05;8.45;;;;;;;-144.30;58.30;83556.09;5092018;28;20221;-49
2023/08/04 00:28:00;;;;;;;9.27;8.48;;;;;;;-144.30;58.00;83603.78;5092044;28;20206;-50
2023/08/04 00:30:46;;;;;;;8.98;8.25;;;;;;;-144.30;58.35;83502.44;5091405;28;20268;-54
2023/08/04 00:33:37;;;;;;;9.07;8.38;;;;;;;-144.30;58.32;83570.00;5091228;28;20207;-54
2023/08/04 00:36:29;;;;;;;9.27;8.48;;;;;;;-144.30;58.34;83585.91;5092035;28;20391;-54
2023/08/04 00:39:16;;;;;;;9.38;8.55;;;;;;;-144.30;58.66;83536.22;5091532;28;20195;-49
2023/08/04 00:42:03;;;;;;;8.40;7.78;;;;;;;-144.30;58.46;83556.09;5090144;28;20222;-50
2023/08/04 00:44:55;;;;;;;9.18;8.48;;;;;;;-144.30;58.53;83583.91;5091039;28;20714;-49
2023/08/04 00:47:37;;;;;;;10.05;9.15;;;;;;;-144.30;58.57;83595.81;5091424;28;20199;-50
2023/08/04 00:53:20;;;;;;;9.10;8.50;;;;;;;-144.30;58.77;83601.78;5091201;28;20234;-49
2023/08/04 00:56:19;;;;;;;9.48;8.65;;;;;;;-144.30;58.84;83621.66;5091291;28;20203;-54
2023/08/04 00:59:06;;;;;;;11.52;8.95;;;;;;;-144.30;59.09;83595.81;5091531;28;20278;-48
2023/08/04 01:01:56;;;;;;;8.75;8.05;;;;;;;-144.30;59.27;83619.66;5091031;28;20242;-54
2023/08/04 01:04:49;;;;;;;9.65;8.70;;;;;;;-144.30;59.43;83611.72;5087570;28;20298;-54
2023/08/04 01:07:50;;;;;;;;;;;;;;;;;;;;;
2023/08/04 01:10:50;;;;;;;10.10;8.75;;;;;;;-144.30;60.03;83621.66;5090445;28;20209;-54
2023/08/04 01:13:48;;;;;;;9.30;8.52;;;;;;;-144.30;59.63;83651.47;5090823;28;20740;-49
2023/08/04 01:16:47;;;;;;;10.00;9.02;;;;;;;-144.30;59.85;83665.38;5091249;28;20206;-54
2023/08/04 01:19:18;;;;;;;9.45;8.55;;;;;;;-144.30;60.14;83627.63;5088990;28;20222;-54
2023/08/04 01:22:25;;;;;;;9.15;8.50;;;;;;;-144.30;60.05;83635.56;5090888;28;20199;-49
2023/08/04 01:25:16;;;;;;;8.63;8.05;;;;;;;-144.30;60.19;83643.50;5091059;28;20199;-54
2023/08/04 01:28:18;;;;;;;9.40;8.63;;;;;;;-144.30;59.92;83687.22;5089053;28;20239;-50
2023/08/04 01:31:20;;;;;;;9.93;8.93;;;;;;;-144.30;60.24;83723.00;5090725;28;20268;-49
2023/08/04 01:34:05;;;;;;;10.00;9.05;;;;;;;-144.30;60.27;83687.22;5091041;28;20201;-53
2023/08/04 01:36:47;;;;;;;10.25;9.10;;;;;;;-144.30;60.17;83711.06;5090343;28;20202;-54
2023/08/04 01:39:45;;;;;;;9.63;8.93;;;;;;;-144.30;60.49;83723.00;5090437;28;20234;-54
2023/08/04 01:42:37;;;;;;;9.45;8.68;;;;;;;-144.30;60.53;83691.19;5088812;28;20195;-49
2023/08/04 01:45:28;;;;;;;10.07;9.10;;;;;;;-144.30;60.89;83701.13;5090036;28;20238;-50
2023/08/04 01:48:13;;;;;;;10.48;9.43;;;;;;;-144.30;61.32;83711.06;5090020;28;20238;-48
2023/08/04 01:51:10;;;;;;;9.43;8.63;;;;;;;-144.30;61.82;83730.94;5090851;28;20647;-53
2023/08/04 01:54:02;;;;;;;9.43;8.82;;;;;;;-144.30;62.23;83750.81;5090280;28;20240;-50
2023/08/04 01:57:00;;;;;;;9.77;8.70;;;;;;;-144.30;62.53;83719.03;5089476;28;20240;-49
2023/08/04 02:00:02;;;;;;;8.52;8.02;;;;;;;-144.30;62.71;83758.75;5089886;28;20191;-51
2023/08/04 02:02:57;;;;;;;9.70;8.90;;;;;;;-144.30;62.80;83780.63;5090159;28;20217;-49
2023/08/04 02:05:53;;;;;;;9.48;8.57;;;;;;;-144.30;62.85;83778.63;5088890;28;20237;-52
2023/08/04 02:08:48;;;;;;;9.68;8.77;;;;;;;-144.30;63.29;83778.63;5089775;28;20223;-50
2023/08/04 02:11:43;;;;;;;10.52;8.68;;;;;;;-144.30;63.47;83770.69;5090048;28;20691;-50
2023/08/04 02:14:45;;;;;;;10.68;9.80;;;;;;;-144.30;63.78;83790.56;5089144;28;20191;-53
2023/08/04 02:17:36;;;;;;;9.90;9.13;;;;;;;-144.30;64.22;83770.69;5089267;28;20199;-54
2023/08/04 02:20:22;;;;;;;9.93;9.07;;;;;;;-144.30;64.50;83804.47;5088320;28;20195;-49
2023/08/04 02:23:08;;;;;;;10.73;9.93;;;;;;;-144.30;65.24;83850.16;5089993;28;20720;-54
2023/08/04 02:25:51;;;;;;;10.05;9.27;;;;;;;-144.30;65.64;83846.19;5089841;28;20687;-49
2023/08/04 02:28:39;;;;;;;10.57;9.70;;;;;;;-144.30;66.07;83822.34;5086313;28;20195;-49
2023/08/04 02:31:33;;;;;;;9.60;8.93;;;;;;;-144.30;66.46;83889.91;5090079;28;20231;-49
2023/08/04 02:34:25;;;;;;;10.18;9.27;;;;;;;-144.30;66.41;83800.50;5088630;28;20199;-54
2023/08/04 02:37:14;;;;;;;11.05;8.95;;;;;;;-144.30;66.46;83834.25;5087176;28;20242;-50
2023/08/04 02:40:06;;;;;;;10.38;9.32;;;;;;;-144.30;66.58;83889.91;5089504;28;20192;-49
2023/08/04 02:42:51;;;;;;;10.60;9.52;;;;;;;-144.30;66.75;83862.09;5089742;28;20671;-50
2023/08/04 02:45:41;;;;;;;11.48;9.93;;;;;;;-144.30;66.93;83887.91;5088234;28;20690;-50
2023/08/04 02:48:38;;;;;;;10.43;9.60;;;;;;;-144.30;67.00;83877.97;5088646;28;20202;-49
2023/08/04 02:51:16;;;;;;;9.60;9.00;;;;;;;-144.30;66.97;83876.00;5089464;28;20221;-50
2023/08/04 02:54:02;;;;;;;11.18;9.95;;;;;;;-144.30;67.36;83911.75;5089871;28;20199;-54
2023/08/04 02:57:01;;;;;;;10.10;9.20;;;;;;;-144.30;67.14;83862.09;5087525;28;20205;-48
2023/08/04 02:59:50;;;;;;;10.73;9.77;;;;;;;-144.30;67.29;83889.91;5088531;28;20195;-53
2023/08/04 03:02:39;;;;;;;10.75;9.43;;;;;;;-144.30;67.29;83872.03;5089558;28;20195;-50
2023/08/04 03:05:34;;;;;;;;;;;;;;;;;;;;;
2023/08/04 03:08:25;;;;;;;10.88;9.98;;;;;;;-144.30;67.43;83917.72;5088831;28;20203;-49
2023/08/04 03:11:16;;;;;;;10.70;9.90;;;;;;;-144.30;67.10;83772.66;5087795;28;20199;-54
2023/08/04 03:14:02;;;;;;;10.00;9.40;;;;;;;-144.30;67.21;83927.66;5089391;28;20191;-54
2023/08/04 03:16:31;;;;;;;11.05;10.15;;;;;;;-144.30;67.12;83899.84;5089192;28;20203;-54
2023/08/04 03:19:00;;;;;;;10.68;9.77;;;;;;;-144.30;66.87;83881.97;5089645;28;20187;-49
2023/08/04 03:21:39;;;;;;;10.98;10.05;;;;;;;-144.30;66.74;83870.03;5089433;28;20195;-54
2023/08/04 03:24:18;;;;;;;10.38;9.52;;;;;;;-144.30;66.41;83870.03;5089216;28;20559;-54
2023/08/04 03:26:58;;;;;;;10.75;9.70;;;;;;;-144.30;66.03;83874.00;5089139;28;20209;-54
2023/08/04 03:29:53;;;;;;;10.73;9.55;;;;;;;-144.30;65.90;83895.88;5093237;28;20632;-54
2023/08/04 03:32:52;;;;;;;;;;;;;;;;;;;;;
2023/08/04 03:38:26;;;;;;;9.98;9.27;;;;;;;-144.30;65.59;83874.00;5092897;28;20203;-55
2023/08/04 03:41:00;;;;;;;13.18;9.43;;;;;;;-144.30;65.36;83840.22;5092900;28;20272;-49
2023/08/04 03:43:44;;;;;;;10.55;9.65;;;;;;;-144.30;65.18;83850.16;5093498;28;20662;-48
2023/08/04 03:46:34;;;;;;;10.15;9.25;;;;;;;-144.30;64.87;83846.19;5092144;28;20226;-50
2023/08/04 03:49:25;;;;;;;10.63;9.65;;;;;;;-144.30;64.74;83814.41;5091988;28;20223;-50
2023/08/04 03:51:52;;;;;;;10.40;9.60;;;;;;;-144.30;64.60;83840.22;5091811;28;20665;-49
2023/08/04 03:54:40;;;;;;;10.18;9.13;;;;;;;-144.30;64.67;83812.41;5092526;28;20253;-50
2023/08/04 03:57:10;;;;;;;13.75;10.32;;;;;;;-144.30;64.14;83794.53;5083523;28;20199;-55
2023/08/04 03:59:44;;;;;;;10.45;9.52;;;;;;;-144.30;63.58;83758.75;5091628;28;20199;-50
2023/08/04 04:02:12;;;;;;;10.48;9.57;;;;;;;-144.30;61.69;83677.28;5090928;28;20195;-49
2023/08/04 04:04:59;;;;;;;13.60;9.50;;;;;;;-144.30;59.66;83560.06;5092332;28;20207;-55
2023/08/04 04:07:40;;;;;;;9.70;8.88;;;;;;;-144.30;55.88;83393.16;5091539;28;20211;-51
2023/08/04 04:10:31;;;;;;;14.68;10.05;;;;;;;-144.30;53.60;83254.09;5092126;28;20222;-49
2023/08/04 04:13:00;;;;;;;10.48;9.70;;;;;;;-144.30;51.79;83162.72;5080721;28;20721;-54
2023/08/04 04:15:45;;;;;;;13.27;9.35;;;;;;;-144.30;50.38;83101.13;5092343;28;20200;-54
2023/08/04 04:18:38;;;;;;;9.95;9.15;;;;;;;-144.30;49.52;82952.13;5090875;28;20691;-49
2023/08/04 04:21:37;;;;;;;10.25;9.52;;;;;;;-144.30;47.79;82825.00;5091868;28;20761;-50
2023/08/04 04:24:20;;;;;;;9.30;8.50;;;;;;;-144.30;46.09;82660.13;5092141;28;20268;-56
2023/08/04 04:27:03;;;;;;;9.27;8.15;;;;;;;-144.30;44.35;82507.19;5090823;28;20207;-55
2023/08/04 04:29:48;;;;;;;11.43;8.98;;;;;;;-144.30;43.29;82342.31;5088642;28;20306;-50
2023/08/04 04:32:25;;;;;;;10.15;9.25;;;;;;;-144.30;41.42;82209.25;5089736;28;20202;-51
2023/08/04 04:35:19;;;;;;;9.50;8.75;;;;;;;-144.30;40.80;82199.31;5089758;28;20209;-55
2023/08/04 04:37:51;;;;;;;9.38;8.68;;;;;;;-144.30;41.00;82205.28;5089472;28;20231;-50
2023/08/04 04:40:19;;;;;;;13.07;8.98;;;;;;;-144.30;40.65;82119.88;5088098;28;20198;-54
2023/08/04 04:43:08;;;;;;;10.73;9.77;;;;;;;-144.30;39.21;81959.00;5082841;28;20219;-55
2023/08/04 04:46:04;;;;;;;14.52;10.98;;;;;;;-144.30;39.49;82000.72;5085258;28;20671;-53
2023/08/04 04:48:47;;;;;;;10.35;9.43;;;;;;;-144.30;39.82;82046.41;5089137;28;20207;-56
2023/08/04 04:51:39;;;;;;;10.13;9.27;;;;;;;-144.30;41.07;82227.13;5091174;28;20234;-58
2023/08/04 04:54:19;;;;;;;10.57;9.57;;;;;;;-144.30;40.03;82098.03;5091745;28;20204;-51
2023/08/04 04:57:15;;;;;;;11.68;9.15;;;;;;;-144.30;39.65;82113.91;5090748;28;20675;-49
2023/08/04 05:00:17;;;;;;;9.70;8.90;;;;;;;-144.30;39.80;82133.78;5088904;28;20399;-49
2023/08/04 05:03:10;;;;;;;10.25;9.23;;;;;;;-144.30;40.64;82203.28;5091424;28;20195;-50
2023/08/04 05:05:48;;;;;;;10.93;9.02;;;;;;;-144.30;40.84;82245.00;5091347;28;20199;-50
2023/08/04 05:08:21;;;;;;;9.50;8.63;;;;;;;-144.30;40.55;82102.00;5088203;28;20223;-55
2023/08/04 05:11:04;;;;;;;9.93;8.93;;;;;;;-144.30;39.17;81994.75;5088204;28;20217;-54
2023/08/04 05:13:46;;;;;;;9.80;8.88;;;;;;;-144.30;38.69;81966.94;5088403;28;20578;-54
2023/08/04 05:16:46;;;;;;;9.75;8.90;;;;;;;-144.30;37.30;81700.84;5088739;28;20195;-51
2023/08/04 05:19:18;;;;;;;9.27;8.30;;;;;;;-144.30;36.31;81494.31;5087499;28;20231;-51
2023/08/04 05:22:03;;;;;;;9.65;8.82;;;;;;;-144.30;36.17;81595.59;5090407;28;20577;-54
2023/08/04 05:24:45;;;;;;;10.35;9.35;;;;;;;-144.30;35.66;81468.50;5088060;28;20195;-53
2023/08/04 05:27:33;;;;;;;11.77;8.88;;;;;;;-144.30;35.00;81414.91;5086498;28;20191;-55
2023/08/04 05:30:14;;;;;;;10.57;9.48;;;;;;;-144.30;36.87;81748.50;5089154;28;20250;-55
2023/08/04 05:33:06;;;;;;;11.27;9.20;;;;;;;-144.30;36.46;81688.94;5089501;28;20300;-50
2023/08/04 05:35:48;;;;;;;9.77;9.05;;;;;;;-144.30;36.31;81684.97;5088215;28;20213;-54
2023/08/04 05:38:44;;;;;;;9.38;8.63;;;;;;;-144.30;35.46;81567.78;5088238;28;20198;-55
2023/08/04 05:41:26;;;;;;;9.68;8.75;;;;;;;-144.30;34.87;81428.81;5090214;28;20584;-54
2023/08/04 05:44:07;;;;;;;9.63;8.88;;;;;;;-144.30;34.85;81498.31;5090170;28;20202;-48
2023/08/04 05:46:51;;;;;;;9.18;8.23;;;;;;;-144.30;35.47;81516.16;5085027;28;20230;-54
2023/08/04 05:49:48;;;;;;;9.07;8.18;;;;;;;-144.30;35.49;81561.84;5089478;28;20320;-49
2023/08/04 05:52:36;;;;;;;8.90;8.07;;;;;;;-144.30;35.70;81561.84;5088532;28;20191;-49
2023/08/04 05:55:21;;;;;;;9.38;8.45;;;;;;;-144.30;35.46;81510.22;5090144;28;20195;-54
2023/08/04 05:57:51;;;;;;;9.85;8.95;;;;;;;-144.30;35.70;81575.75;5085942;28;20191;-55
2023/08/04 06:00:22;;;;;;;9.13;8.38;;;;;;;-144.30;35.85;81545.97;5087362;28;20198;-51
2023/08/04 06:02:52;;;;;;;9.35;8.60;;;;;;;-144.30;35.40;81508.22;5088106;28;20587;-49
2023/08/04 06:05:24;;;;;;;10.07;9.15;;;;;;;-144.30;34.87;81311.66;5089601;28;20203;-51
2023/08/04 06:07:56;;;;;;;9.48;8.80;;;;;;;-144.30;33.77;81148.84;5090161;28;20217;-51
2023/08/04 06:10:27;;;;;;;8.77;8.02;;;;;;;-144.30;33.01;81130.97;5089751;28;20222;-51
2023/08/04 06:12:56;;;;;;;8.15;7.65;;;;;;;-144.30;33.13;81113.09;5088702;28;20209;-52
2023/08/04 06:15:30;;;;;;;8.95;8.30;;;;;;;-144.30;32.31;81021.75;5089921;28;20230;-51
2023/08/04 06:18:01;;;;;;;10.77;7.82;;;;;;;-144.30;32.88;81200.47;5090015;28;20202;-55
2023/08/04 06:20:33;;;;;;;8.85;8.27;;;;;;;-144.30;32.83;81176.63;5089800;28;20195;-55
2023/08/04 06:23:06;;;;;;;7.88;7.47;;;;;;;-144.30;33.12;81136.91;5089675;28;20731;-54
2023/08/04 06:25:35;;;;;;;10.38;8.68;;;;;;;-144.30;33.48;81315.63;5087922;28;20199;-55
2023/08/04 06:28:08;;;;;;;12.48;9.45;;;;;;;-144.30;32.90;81107.13;5088734;28;20278;-51
2023/08/04 06:30:40;;;;;;;13.40;9.00;;;;;;;-144.30;32.81;81035.66;5088778;28;20250;-52
2023/08/04 06:33:13;;;;;;;11.65;10.38;;;;;;;-144.30;33.26;81218.31;5089047;28;20191;-53
2023/08/04 06:35:49;;;;;;;11.98;9.90;;;;;;;-144.30;33.18;81039.63;5086646;28;20201;-56
2023/08/04 06:38:22;;;;;;;9.57;8.13;;;;;;;-144.30;33.57;81277.91;5089353;28;20581;-52
2023/08/04 06:40:54;;;;;;;9.40;8.50;;;;;;;-144.30;34.83;81532.06;5089374;28;20282;-55
2023/08/04 06:43:25;;;;;;;15.00;10.30;;;;;;;-144.30;34.79;81414.91;5088902;28;20591;-51
2023/08/04 06:45:59;;;;;;;9.93;9.07;;;;;;;-144.30;33.75;81267.97;5088756;28;20223;-52
2023/08/04 06:48:30;;;;;;;10.02;8.80;;;;;;;-144.30;33.76;81188.53;5089186;28;20246;-54
2023/08/04 06:51:04;;;;;;;9.93;9.07;;;;;;;-144.30;33.72;81162.72;5089244;28;20318;-56
2023/08/04 06:53:36;;;;;;;9.88;9.10;;;;;;;-144.30;33.31;81039.63;5089155;28;20206;-56
2023/08/04 06:56:05;;;;;;;11.27;9.00;;;;;;;-144.30;32.52;80954.25;5086305;28;20653;-52
2023/08/04 06:58:35;;;;;;;9.82;9.13;;;;;;;-144.30;32.29;80803.38;5087871;28;20198;-52
2023/08/04 07:01:02;;;;;;;9.40;8.43;;;;;;;-144.30;31.62;80592.94;5087521;28;20260;-52
2023/08/04 07:03:29;;;;;;;9.52;8.88;;;;;;;-144.30;31.71;80716.03;5093842;28;20198;-53
2023/08/04 07:05:58;;;;;;;9.57;8.52;;;;;;;-144.30;31.27;80765.66;5093591;28;20194;-51
2023/08/04 07:08:33;;;;;;;9.57;8.70;;;;;;;-144.30;31.81;80727.94;5093483;28;20730;-51
2023/08/04 07:11:04;;;;;;;9.35;8.57;;;;;;;-144.30;31.81;80751.75;5092724;28;20218;-51
2023/08/04 07:13:34;;;;;;;8.68;8.07;;;;;;;-144.30;31.70;80876.84;5092771;28;20277;-50
2023/08/04 07:16:05;;;;;;;9.13;8.35;;;;;;;-144.30;31.98;80956.25;5092601;28;20654;-51
2023/08/04 07:18:35;;;;;;;9.43;8.70;;;;;;;-144.30;32.46;80982.06;5092661;28;20736;-51
2023/08/04 07:21:16;;;;;;;9.13;8.40;;;;;;;-144.30;32.15;80855.00;5093126;28;20282;-52
2023/08/04 07:24:06;;;;;;;9.45;8.52;;;;;;;-144.30;31.35;80718.00;5092828;28;20240;-54
2023/08/04 07:26:34;;;;;;;8.88;8.07;;;;;;;-144.30;31.20;80779.56;5091583;28;20194;-51
2023/08/04 07:29:04;;;;;;;9.70;8.77;;;;;;;-144.30;31.00;80773.59;5092615;28;20195;-54
2023/08/04 07:31:35;;;;;;;9.02;8.32;;;;;;;-144.30;30.61;80644.56;5092699;28;20295;-55
2023/08/04 07:34:13;;;;;;;8.57;7.88;;;;;;;-144.30;30.84;80698.16;5092884;28;20195;-55
2023/08/04 07:36:47;;;;;;;9.00;8.35;;;;;;;-144.30;30.68;80700.16;5092872;28;20194;-54
2023/08/04 07:39:15;;;;;;;10.30;9.13;;;;;;;-144.30;29.95;80350.75;5092425;28;20198;-52
2023/08/04 07:41:45;;;;;;;9.05;8.38;;;;;;;-144.30;29.09;80140.34;5092912;28;20244;-54
2023/08/04 07:44:14;;;;;;;9.07;8.30;;;;;;;-144.30;28.90;80021.25;5093122;28;20230;-54
2023/08/04 07:46:43;;;;;;;9.82;9.00;;;;;;;-144.30;28.82;79961.72;5092605;28;20226;-51
2023/08/04 07:49:15;;;;;;;10.77;9.35;;;;;;;-144.30;28.88;79892.25;5092800;28;20571;-59
2023/08/04 07:51:46;;;;;;;10.23;8.52;;;;;;;-144.30;28.67;80047.06;5093051;28;20223;-55
2023/08/04 07:54:15;;;;;;;9.90;9.15;;;;;;;-144.30;28.82;79896.22;5092844;28;20639;-51
2023/08/04 07:56:45;;;;;;;10.13;8.50;;;;;;;-144.30;28.70;79953.78;5092961;28;20579;-51
2023/08/04 07:59:15;;;;;;;8.70;8.00;;;;;;;-144.30;28.90;79939.88;5092506;28;20198;-52
2023/08/04 08:01:45;;;;;;;9.38;8.57;;;;;;;-144.30;28.40;79838.66;5092457;28;20190;-55
2023/08/04 08:04:14;;;;;;;8.65;7.85;;;;;;;-144.30;27.59;79755.31;5091829;28;20611;-56
2023/08/04 08:06:50;;;;;;;8.75;8.13;;;;;;;-144.30;27.96;79610.44;5092539;28;20191;-52
2023/08/04 08:09:20;;;;;;;9.10;8.40;;;;;;;-144.30;27.90;79654.09;5092225;28;20198;-53
2023/08/04 08:11:49;;;;;;;9.05;7.93;;;;;;;-144.30;27.92;79840.66;5092301;28;20237;-52
2023/08/04 08:14:21;;;;;;;8.48;7.68;;;;;;;-144.30;28.33;79878.34;5091619;28;20198;-52
2023/08/04 08:16:54;;;;;;;10.98;8.02;;;;;;;-144.30;28.00;79628.28;5092212;28;20248;-51
2023/08/04 08:19:22;;;;;;;9.48;8.68;;;;;;;-144.30;28.43;79848.59;5092043;28;20259;-54
2023/08/04 08:21:57;;;;;;;13.35;8.57;;;;;;;-144.30;30.55;80642.56;5092140;28;20194;-52
2023/08/04 08:24:27;;;;;;;9.45;8.73;;;;;;;-144.30;30.77;80614.78;5092174;28;20200;-54
2023/08/04 08:26:57;;;;;;;9.18;8.25;;;;;;;-144.30;30.66;80543.31;5092154;28;20644;-52
2023/08/04 08:29:30;;;;;;;9.30;8.60;;;;;;;-144.30;30.41;80436.13;5091820;28;20703;-52
2023/08/04 08:31:58;;;;;;;9.60;9.00;;;;;;;-144.30;30.12;80319.00;5091843;28;20632;-52
2023/08/04 08:34:29;;;;;;;9.20;8.50;;;;;;;-144.30;29.97;80348.78;5091702;28;20205;-52
2023/08/04 08:37:01;;;;;;;9.63;8.77;;;;;;;-144.30;30.45;80422.22;5091660;28;20285;-51
2023/08/04 08:39:32;;;;;;;9.35;8.55;;;;;;;-144.30;30.82;80559.19;5091654;28;20252;-55
2023/08/04 08:42:02;;;;;;;9.10;8.60;;;;;;;-144.30;31.08;80636.63;5091539;28;20569;-55
2023/08/04 08:44:33;;;;;;;14.63;8.85;;;;;;;-144.30;31.20;80644.56;5091855;28;20277;-52
2023/08/04 08:47:04;;;;;;;12.13;8.82;;;;;;;-144.30;31.66;80747.78;5091321;28;20195;-54
2023/08/04 08:49:47;;;;;;;8.98;8.43;;;;;;;-144.30;32.12;80716.03;5091380;28;20281;-51
2023/08/04 08:52:21;;;;;;;9.55;8.75;;;;;;;-144.30;32.37;80797.41;5091501;28;20377;-55
2023/08/04 08:54:52;;;;;;;10.63;9.02;;;;;;;-144.30;32.22;80735.88;5091733;28;20198;-52
2023/08/04 08:57:21;;;;;;;9.43;8.70;;;;;;;-144.30;32.31;80757.72;5091442;28;20262;-51
2023/08/04 08:59:52;;;;;;;10.05;9.45;;;;;;;-144.30;32.48;80797.41;5091475;28;20289;-55
2023/08/04 09:02:23;;;;;;;10.50;9.68;;;;;;;-144.30;32.78;80926.47;5091269;28;20191;-55
2023/08/04 09:04:57;;;;;;;11.52;10.52;;;;;;;-144.30;33.26;80902.66;5091125;28;20255;-52
2023/08/04 09:07:27;;;;;;;10.45;9.43;;;;;;;-144.30;32.70;80811.31;5091176;28;20191;-52
2023/08/04 09:09:57;;;;;;;10.60;9.57;;;;;;;-144.30;32.53;80809.34;5090687;28;20721;-52
2023/08/04 09:12:28;;;;;;;10.45;9.60;;;;;;;-144.30;32.97;80819.25;5090609;28;20600;-52
2023/08/04 09:15:15;;;;;;;10.70;9.88;;;;;;;-144.30;32.72;80767.63;5091065;28;20205;-55
2023/08/04 09:18:02;;;;;;;10.00;9.30;;;;;;;-144.30;33.36;80884.78;5091006;28;20195;-57
2023/08/04 09:20:34;;;;;;;9.95;9.13;;;;;;;-144.30;33.48;80993.97;5090531;28;20194;-54
2023/08/04 09:23:06;;;;;;;11.25;9.88;;;;;;;-144.30;33.30;80960.22;5090508;28;20206;-51
2023/08/04 09:25:55;;;;;;;9.93;9.43;;;;;;;-144.30;32.88;80892.72;5089868;28;20199;-54
2023/08/04 09:28:24;;;;;;;10.23;9.40;;;;;;;-144.30;32.72;80767.63;5090888;28;20198;-51
2023/08/04 09:31:07;;;;;;;10.75;9.95;;;;;;;-144.30;32.39;80733.88;5090609;28;20218;-51
2023/08/04 09:33:41;;;;;;;10.10;9.23;;;;;;;-144.30;32.43;80700.16;5090945;28;20190;-51
2023/08/04 09:36:16;;;;;;;13.38;10.20;;;;;;;-144.30;32.66;80676.31;5090725;28;20648;-51
2023/08/04 09:38:50;;;;;;;10.82;9.65;;;;;;;-144.30;32.56;80612.78;5090483;28;20194;-54
2023/08/04 09:41:28;;;;;;;10.35;9.65;;;;;;;-144.30;32.01;80676.31;5090350;28;20194;-54
2023/08/04 09:44:15;;;;;;;10.05;9.25;;;;;;;-144.30;32.24;80894.69;5090929;28;20198;-55
2023/08/04 09:47:00;;;;;;;13.77;10.02;;;;;;;-144.30;32.23;80775.59;5090788;28;20600;-51
2023/08/04 09:49:43;;;;;;;10.70;9.82;;;;;;;-144.30;31.82;80739.84;5090399;28;20583;-52
2023/08/04 09:52:34;;;;;;;10.93;10.13;;;;;;;-144.30;32.81;80932.41;5089592;28;20271;-54
2023/08/04 09:55:12;;;;;;;10.63;9.73;;;;;;;-144.30;32.97;80823.22;5089548;28;20659;-52
2023/08/04 09:57:43;;;;;;;11.85;9.07;;;;;;;-144.30;32.92;80855.00;5090409;28;20274;-54
2023/08/04 10:00:20;;;;;;;10.45;9.65;;;;;;;-144.30;32.94;80924.47;5090116;28;20256;-55
2023/08/04 10:02:54;;;;;;;10.45;9.88;;;;;;;-144.30;32.37;80791.47;5090071;28;20200;-54
2023/08/04 10:05:27;;;;;;;10.05;9.43;;;;;;;-144.30;32.41;80884.78;5090332;28;20289;-54
2023/08/04 10:07:57;;;;;;;11.27;10.10;;;;;;;-144.30;32.94;80940.38;5090175;28;20283;-51
2023/08/04 10:11:03;;;;;;;10.15;9.35;;;;;;;-144.30;33.02;80864.91;5090304;28;20202;-54
2023/08/04 10:13:49;;;;;;;11.55;10.50;;;;;;;-144.30;32.64;80809.34;5089426;28;20670;-55
2023/08/04 10:16:35;;;;;;;10.93;9.93;;;;;;;-144.30;32.98;80890.72;5089834;28;20201;-56
2023/08/04 10:19:18;;;;;;;15.43;10.40;;;;;;;-144.30;32.78;80845.06;5089332;28;20272;-51
2023/08/04 10:21:49;;;;;;;9.98;9.35;;;;;;;-144.30;32.05;80855.00;5089934;28;20592;-55
2023/08/04 10:24:21;;;;;;;10.38;9.65;;;;;;;-144.30;32.51;80918.53;5083421;28;20202;-51
2023/08/04 10:26:53;;;;;;;11.77;10.73;;;;;;;-144.30;33.08;81017.78;5086913;28;20194;-51
2023/08/04 10:29:32;;;;;;;10.23;9.45;;;;;;;-144.30;32.95;81027.72;5086707;28;20213;-52
2023/08/04 10:32:07;;;;;;;11.68;10.77;;;;;;;-144.30;33.34;81055.50;5086585;28;20553;-51
2023/08/04 10:34:37;;;;;;;10.95;9.98;;;;;;;-144.30;33.75;81053.53;5089366;28;20190;-51
2023/08/04 10:37:09;;;;;;;10.48;9.77;;;;;;;-144.30;33.07;81069.41;5088118;28;20199;-52
2023/08/04 10:39:40;;;;;;;10.98;10.07;;;;;;;-144.30;33.35;81059.50;5088788;28;20186;-52
2023/08/04 10:42:23;;;;;;;10.85;10.13;;;;;;;-144.30;33.52;81099.19;5088969;28;20187;-52
2023/08/04 10:44:57;;;;;;;11.00;10.20;;;;;;;-144.30;33.31;81136.91;5087789;28;20202;-52
2023/08/04 10:47:38;;;;;;;10.18;9.40;;;;;;;-144.30;32.83;81152.81;5087180;28;20622;-51
2023/08/04 10:50:07;;;;;;;10.23;9.52;;;;;;;-144.30;32.64;81128.97;5086833;28;20191;-52
2023/08/04 10:52:37;;;;;;;10.32;9.60;;;;;;;-144.30;32.79;81218.31;5088759;28;20284;-50
2023/08/04 10:55:08;;;;;;;10.73;9.77;;;;;;;-144.30;33.12;81208.41;5088549;28;20187;-51
2023/08/04 10:57:40;;;;;;;9.82;9.18;;;;;;;-144.30;32.63;81232.22;5088794;28;20214;-51
2023/08/04 11:00:14;;;;;;;10.90;10.00;;;;;;;-144.30;32.50;81262.00;5088836;28;20577;-52
2023/08/04 11:02:46;;;;;;;10.40;9.35;;;;;;;-144.30;32.27;81190.53;5086327;28;20193;-54
2023/08/04 11:05:17;;;;;;;10.52;9.73;;;;;;;-144.30;31.78;81192.50;5088778;28;20194;-54
2023/08/04 11:07:49;;;;;;;10.05;9.35;;;;;;;-144.30;31.64;81218.31;5086822;28;20230;-55
2023/08/04 11:10:18;;;;;;;10.30;9.65;;;;;;;-144.30;31.62;81093.25;5088451;28;20187;-54
2023/08/04 11:12:51;;;;;;;9.27;8.57;;;;;;;-144.30;30.61;81117.06;5088059;28;20219;-54
2023/08/04 11:15:21;;;;;;;9.40;8.70;;;;;;;-144.30;30.66;81035.66;5085701;28;20198;-52
2023/08/04 11:17:50;;;;;;;10.20;9.27;;;;;;;-144.30;30.31;80966.19;5088609;28;20229;-51
2023/08/04 11:20:19;;;;;;;9.40;8.48;;;;;;;-144.30;29.72;80962.19;5088645;28;20209;-54
2023/08/04 11:22:52;;;;;;;10.02;8.93;;;;;;;-144.30;29.26;80958.22;5088576;28;20217;-52
2023/08/04 11:25:22;;;;;;;8.85;8.05;;;;;;;-144.30;29.08;81055.50;5085701;28;20223;-54
2023/08/04 11:27:53;;;;;;;8.80;8.07;;;;;;;-144.30;28.94;81037.66;5088494;28;20255;-52
2023/08/04 11:30:22;;;;;;;11.43;8.25;;;;;;;-144.30;28.92;81033.69;5085877;28;20186;-53
2023/08/04 11:32:54;;;;;;;8.95;8.10;;;;;;;-144.30;28.87;81025.72;5088409;28;20225;-54
2023/08/04 11:35:25;;;;;;;8.45;7.90;;;;;;;-144.30;28.97;81049.56;5086125;28;20252;-52
2023/08/04 11:37:56;;;;;;;15.73;8.52;;;;;;;-144.30;28.22;81015.81;5088506;28;20199;-54
2023/08/04 11:40:27;;;;;;;9.85;8.88;;;;;;;-144.30;28.42;80982.06;5086546;28;20663;-54
2023/08/04 11:43:05;;;;;;;10.27;9.48;;;;;;;-144.30;28.80;81001.91;5088690;28;20183;-52
2023/08/04 11:45:36;;;;;;;24.58;10.23;;;;;;;-144.30;29.17;80968.16;5088475;28;20234;-51
2023/08/04 11:48:10;;;;;;;10.68;8.43;;;;;;;-144.30;29.49;80999.94;5087260;28;20194;-52
2023/08/04 11:50:40;;;;;;;10.27;8.68;;;;;;;-144.30;29.22;81007.88;5091707;28;20195;-51
2023/08/04 11:53:09;;;;;;;8.43;7.72;;;;;;;-144.30;28.76;81021.75;5091969;28;20275;-51
2023/08/04 11:55:58;;;;;;;15.40;8.43;;;;;;;-144.30;28.68;81013.81;5092105;28;20658;-52
2023/08/04 11:58:45;;;;;;;8.38;7.90;;;;;;;-144.30;28.69;80990.00;5090426;28;20247;-52
2023/08/04 12:01:33;;;;;;;8.38;7.80;;;;;;;-144.30;27.62;80980.06;5091023;28;20301;-51
2023/08/04 12:04:05;;;;;;;8.50;7.85;;;;;;;-144.30;27.73;80964.19;5089276;28;20195;-54
2023/08/04 12:06:35;;;;;;;8.60;8.00;;;;;;;-144.30;27.27;80916.53;5091733;28;20205;-54
2023/08/04 12:09:05;;;;;;;7.90;7.40;;;;;;;-144.30;27.16;80886.75;5089476;28;20689;-55
2023/08/04 12:11:32;;;;;;;8.10;7.32;;;;;;;-144.30;27.07;80864.91;5091892;28;20612;-54
2023/08/04 12:14:12;;;;;;;8.32;7.60;;;;;;;-144.30;26.42;80847.06;5092485;28;20211;-55
2023/08/04 12:16:53;;;;;;;7.50;7.10;;;;;;;-144.30;26.39;80862.94;5092066;28;20195;-54
2023/08/04 12:19:26;;;;;;;8.05;7.38;;;;;;;-144.30;26.65;80831.16;5091801;28;20360;-55
2023/08/04 12:22:03;;;;;;;7.95;7.22;;;;;;;-144.30;26.37;80878.81;5091818;28;20195;-55